Time;durP1;ratioP1;P1;durP2;ratioP2;P2;SDS_P1;SDS_P2;PMS_P1;PMS_P2;Temp;Humidity;BMP_temperature;BMP_pressure;BME280_temperature;BME280_humidity;BME280_pressure;Samples;Min_cycle;Max_cycle;Signal;HPM_P1;HPM_P2
2024/01/26 00:01:56;;;;;;;16.08;6.32;;;9.80;99.90;;;;;;4992679;28;20114;-78
2024/01/26 00:04:22;;;;;;;13.80;6.22;;;9.80;99.90;;;;;;4994284;28;20073;-78
2024/01/26 00:06:48;;;;;;;12.20;5.88;;;9.80;99.90;;;;;;4992517;28;20025;-78
2024/01/26 00:09:15;;;;;;;12.75;6.50;;;9.80;99.90;;;;;;4992613;28;20050;-78
2024/01/26 00:11:42;;;;;;;15.02;6.28;;;9.80;99.90;;;;;;4993993;28;20019;-78
2024/01/26 00:14:08;;;;;;;12.40;6.43;;;9.80;99.90;;;;;;4992599;28;20038;-78
2024/01/26 00:16:36;;;;;;;11.48;5.80;;;9.90;99.90;;;;;;4992643;28;20038;-78
2024/01/26 00:19:01;;;;;;;14.98;6.28;;;9.90;99.90;;;;;;4992701;28;20543;-78
2024/01/26 00:21:27;;;;;;;13.43;6.38;;;9.90;99.90;;;;;;4993087;28;20026;-78
2024/01/26 00:23:53;;;;;;;15.63;6.32;;;9.90;99.90;;;;;;4994336;28;20027;-77
2024/01/26 00:26:19;;;;;;;12.15;5.20;;;9.90;99.90;;;;;;4994038;28;20448;-78
2024/01/26 00:28:44;;;;;;;11.98;6.28;;;9.90;99.90;;;;;;4992766;28;20494;-78
2024/01/26 00:31:18;;;;;;;12.27;6.20;;;9.80;99.90;;;;;;4993789;28;20058;-78
2024/01/26 00:33:44;;;;;;;12.23;5.53;;;9.80;99.90;;;;;;4993061;28;20022;-78
2024/01/26 00:36:11;;;;;;;9.90;5.35;;;9.90;99.90;;;;;;4993897;28;20113;-78
2024/01/26 00:38:36;;;;;;;12.40;5.82;;;9.90;99.90;;;;;;4997798;28;20382;-78
2024/01/26 00:41:02;;;;;;;15.35;5.53;;;9.90;99.90;;;;;;4997728;28;20022;-78
2024/01/26 00:43:28;;;;;;;10.65;4.78;;;9.90;99.90;;;;;;4997487;28;20023;-78
2024/01/26 00:45:53;;;;;;;10.25;5.10;;;9.90;99.90;;;;;;4997356;28;20014;-78
2024/01/26 00:48:20;;;;;;;10.82;4.90;;;9.90;99.90;;;;;;4997597;28;20076;-78
2024/01/26 00:50:46;;;;;;;7.57;4.00;;;9.90;99.90;;;;;;4997570;28;20070;-78
2024/01/26 00:53:12;;;;;;;12.63;5.22;;;9.90;99.90;;;;;;4997270;28;20379;-78
2024/01/26 00:55:37;;;;;;;9.48;4.35;;;9.90;99.90;;;;;;4997218;28;20030;-78
2024/01/26 00:58:03;;;;;;;12.48;5.03;;;9.90;99.90;;;;;;4997348;28;20459;-78
2024/01/26 01:00:29;;;;;;;8.82;4.32;;;10.70;99.90;;;;;;4997462;28;20112;-78
2024/01/26 01:02:55;;;;;;;7.07;3.60;;;9.90;99.90;;;;;;4995794;28;20045;-78
2024/01/26 01:05:20;;;;;;;10.77;4.40;;;9.90;99.90;;;;;;4996933;28;20045;-78
2024/01/26 01:07:46;;;;;;;11.00;4.65;;;9.90;99.90;;;;;;4997193;28;20029;-78
2024/01/26 01:10:13;;;;;;;8.25;4.30;;;9.90;99.90;;;;;;4996993;28;20400;-78
2024/01/26 01:12:40;;;;;;;10.45;3.88;;;9.90;99.90;;;;;;4997336;28;20030;-78
2024/01/26 01:15:11;;;;;;;9.13;4.20;;;9.90;99.90;;;;;;4995639;28;20034;-78
2024/01/26 01:17:40;;;;;;;8.88;4.63;;;9.90;99.90;;;;;;4995512;28;20544;-78
2024/01/26 01:20:08;;;;;;;9.43;4.53;;;10.00;99.90;;;;;;4997536;28;20018;-77
2024/01/26 01:22:47;;;;;;;9.47;4.23;;;9.90;99.90;;;;;;4996964;28;20033;-78
2024/01/26 01:25:12;;;;;;;;;;;9.90;99.90;;;;;;4996692;28;20018;-78
2024/01/26 01:27:38;;;;;;;10.93;4.63;;;9.90;99.90;;;;;;4996568;28;19906;-78
2024/01/26 01:30:06;;;;;;;7.88;3.97;;;9.90;99.90;;;;;;4996439;28;20382;-78
2024/01/26 01:32:32;;;;;;;8.02;3.42;;;9.90;99.90;;;;;;4996355;28;20081;-78
2024/01/26 01:34:58;;;;;;;9.57;3.42;;;9.90;99.90;;;;;;4996442;28;20049;-78
2024/01/26 01:37:23;;;;;;;7.55;3.85;;;9.90;99.90;;;;;;4996519;28;20023;-78
2024/01/26 01:39:49;;;;;;;7.03;3.63;;;9.90;99.90;;;;;;4995239;28;20034;-78
2024/01/26 01:42:15;;;;;;;9.10;3.67;;;9.90;99.90;;;;;;4995215;28;20027;-78
2024/01/26 01:44:42;;;;;;;6.53;3.33;;;9.90;99.90;;;;;;4996456;28;20019;-78
2024/01/26 01:47:12;;;;;;;9.07;3.20;;;9.90;99.90;;;;;;4994527;28;20025;-78
2024/01/26 01:49:39;;;;;;;7.75;3.22;;;9.90;99.90;;;;;;4994906;28;20117;-78
2024/01/26 01:52:26;;;;;;;7.57;3.42;;;9.90;99.90;;;;;;4996161;28;20101;-76
2024/01/26 01:54:54;;;;;;;6.50;3.00;;;9.80;99.90;;;;;;4995934;28;20041;-78
2024/01/26 01:57:23;;;;;;;10.55;3.35;;;9.90;99.90;;;;;;4994840;28;20394;-76
2024/01/26 01:59:49;;;;;;;5.95;3.13;;;9.90;99.90;;;;;;4994848;28;20022;-78
2024/01/26 02:02:14;;;;;;;5.07;2.55;;;9.90;99.90;;;;;;4994695;28;20088;-78
2024/01/26 02:04:40;;;;;;;7.85;2.97;;;9.90;99.90;;;;;;4994700;28;20022;-78
2024/01/26 02:07:06;;;;;;;9.10;3.20;;;9.90;99.90;;;;;;4994303;28;20109;-78
2024/01/26 02:09:31;;;;;;;5.68;2.38;;;9.90;99.90;;;;;;4994883;28;20030;-78
2024/01/26 02:11:59;;;;;;;6.85;2.28;;;10.00;99.90;;;;;;4994330;28;20027;-78
2024/01/26 02:14:25;;;;;;;6.10;2.08;;;10.00;99.90;;;;;;4995782;28;20498;-78
2024/01/26 02:17:02;;;;;;;7.07;2.22;;;10.00;99.90;;;;;;4994396;28;20114;-78
2024/01/26 02:19:32;;;;;;;4.30;2.05;;;10.00;99.90;;;;;;4995715;28;20037;-78
2024/01/26 02:21:57;;;;;;;5.20;1.83;;;10.10;99.90;;;;;;4994665;28;20390;-78
2024/01/26 02:24:23;;;;;;;5.15;1.85;;;10.10;99.90;;;;;;4996178;28;20025;-78
2024/01/26 02:26:52;;;;;;;3.42;1.73;;;10.00;99.90;;;;;;4995832;28;20441;-78
2024/01/26 02:29:18;;;;;;;3.15;1.58;;;10.10;99.90;;;;;;4994313;28;20438;-78
2024/01/26 02:31:43;;;;;;;5.00;1.30;;;10.10;99.90;;;;;;4995671;28;20042;-78
2024/01/26 02:34:12;;;;;;;4.22;1.58;;;10.10;99.90;;;;;;4995985;28;20370;-78
2024/01/26 02:36:38;;;;;;;;;;;10.20;99.90;;;;;;4995759;28;20027;-78
2024/01/26 02:39:05;;;;;;;6.18;1.35;;;10.20;99.90;;;;;;4994100;28;19910;-78
2024/01/26 02:41:32;;;;;;;5.70;1.83;;;;;;;;;;4995998;28;20057;-78
2024/01/26 02:43:58;;;;;;;4.85;2.03;;;10.20;99.90;;;;;;4993855;28;20080;-78
2024/01/26 02:46:24;;;;;;;5.90;2.08;;;10.20;99.90;;;;;;4995160;28;20509;-78
2024/01/26 02:48:52;;;;;;;4.38;1.83;;;10.30;99.90;;;;;;4995584;28;20050;-78
2024/01/26 02:51:18;;;;;;;5.68;2.75;;;10.30;99.90;;;;;;4995121;28;20023;-78
2024/01/26 02:53:43;;;;;;;6.18;2.63;;;10.40;99.90;;;;;;4995233;28;20049;-78
2024/01/26 02:56:09;;;;;;;7.35;2.42;;;10.40;99.90;;;;;;4995015;28;20069;-78
2024/01/26 02:58:36;;;;;;;6.55;3.47;;;10.40;99.90;;;;;;4994991;28;20028;-78
2024/01/26 03:01:01;;;;;;;7.43;2.63;;;10.40;99.90;;;;;;4993547;28;20022;-78
2024/01/26 03:03:27;;;;;;;6.63;3.53;;;10.40;99.90;;;;;;4995398;28;20076;-78
2024/01/26 03:05:53;;;;;;;6.82;3.45;;;10.40;99.90;;;;;;4993545;28;20034;-78
2024/01/26 03:08:19;;;;;;;7.90;3.88;;;10.40;99.90;;;;;;4993509;28;20041;-78
2024/01/26 03:10:44;;;;;;;10.77;4.47;;;10.40;99.90;;;;;;4993749;28;20470;-78
2024/01/26 03:13:10;;;;;;;11.07;5.10;;;10.40;99.90;;;;;;4995298;28;20027;-78
2024/01/26 03:15:36;;;;;;;11.32;5.70;;;10.40;99.90;;;;;;4994619;28;20030;-78
2024/01/26 03:18:02;;;;;;;9.65;4.68;;;10.40;99.90;;;;;;4993439;28;20088;-78
2024/01/26 03:20:27;;;;;;;10.48;4.47;;;10.50;99.90;;;;;;4994651;28;20022;-78
2024/01/26 03:22:53;;;;;;;9.70;4.70;;;10.50;99.90;;;;;;4993279;28;20034;-78
2024/01/26 03:25:18;;;;;;;11.25;4.75;;;10.50;99.90;;;;;;4993093;28;20022;-79
2024/01/26 03:27:44;;;;;;;12.25;5.28;;;10.50;99.90;;;;;;4993316;28;20019;-78
2024/01/26 03:30:10;;;;;;;11.52;4.90;;;10.50;99.90;;;;;;4993019;28;20025;-78
2024/01/26 03:32:35;;;;;;;11.02;5.68;;;10.50;99.90;;;;;;4994600;28;20037;-78
2024/01/26 03:35:01;;;;;;;11.02;4.45;;;10.50;99.90;;;;;;4995037;28;20034;-76
2024/01/26 03:37:27;;;;;;;9.85;4.85;;;10.50;99.90;;;;;;4994414;28;20061;-78
2024/01/26 03:39:53;;;;;;;12.10;5.07;;;10.50;99.90;;;;;;4994655;28;20030;-77
2024/01/26 03:42:19;;;;;;;13.52;5.10;;;11.20;99.90;;;;;;4992900;28;20041;-78
2024/01/26 03:44:44;;;;;;;8.68;4.43;;;10.50;99.90;;;;;;4993396;28;20018;-78
2024/01/26 03:47:10;;;;;;;10.57;5.15;;;10.50;99.90;;;;;;4992853;28;20026;-78
2024/01/26 03:49:40;;;;;;;13.20;5.32;;;10.60;99.90;;;;;;4993025;28;20025;-78
2024/01/26 03:52:07;;;;;;;7.13;4.47;;;10.60;99.90;;;;;;4994950;28;20104;-78
2024/01/26 03:54:32;;;;;;;10.30;4.65;;;10.60;99.90;;;;;;4993290;28;20030;-78
2024/01/26 03:56:58;;;;;;;7.85;4.30;;;10.60;99.90;;;;;;4993116;28;20030;-78
2024/01/26 03:59:23;;;;;;;14.23;5.00;;;10.60;99.90;;;;;;4994116;28;20050;-78
2024/01/26 04:01:49;;;;;;;9.63;5.22;;;10.70;99.90;;;;;;4992896;28;20549;-78
2024/01/26 04:04:15;;;;;;;8.68;4.47;;;10.60;99.90;;;;;;4992946;28;20031;-78
2024/01/26 04:06:41;;;;;;;9.63;4.20;;;10.70;99.90;;;;;;4994182;28;20023;-78
2024/01/26 04:09:11;;;;;;;8.77;4.47;;;10.70;99.90;;;;;;4994308;28;20030;-78
2024/01/26 04:11:37;;;;;;;8.50;4.53;;;10.70;99.90;;;;;;4996166;28;20029;-78
2024/01/26 04:14:03;;;;;;;11.05;4.80;;;10.60;99.90;;;;;;4998179;28;20022;-78
2024/01/26 04:16:29;;;;;;;10.27;5.05;;;10.70;99.90;;;;;;4998598;28;20022;-78
2024/01/26 04:18:54;;;;;;;10.85;5.63;;;10.70;99.90;;;;;;4998465;28;20114;-78
2024/01/26 04:21:20;;;;;;;10.00;4.85;;;10.70;99.90;;;;;;4996512;28;20018;-78
2024/01/26 04:23:46;;;;;;;9.40;4.97;;;10.70;99.90;;;;;;4998099;28;20105;-78
2024/01/26 04:26:11;;;;;;;11.45;5.40;;;10.70;99.90;;;;;;4998187;28;20047;-78
2024/01/26 04:28:37;;;;;;;14.00;5.95;;;10.80;99.90;;;;;;4996624;28;20054;-78
2024/01/26 04:31:04;;;;;;;12.35;5.90;;;10.80;99.90;;;;;;4997696;28;20027;-78
2024/01/26 04:33:29;;;;;;;14.15;6.35;;;10.80;99.90;;;;;;4998553;28;20542;-78
2024/01/26 04:35:55;;;;;;;13.52;6.30;;;10.80;99.90;;;;;;4997546;28;20057;-79
2024/01/26 04:38:21;;;;;;;13.32;6.70;;;10.80;99.90;;;;;;4997434;28;20037;-76
2024/01/26 04:40:46;;;;;;;17.67;7.28;;;10.90;99.90;;;;;;4996414;28;20029;-78
2024/01/26 04:43:12;;;;;;;13.80;6.63;;;10.80;99.90;;;;;;4996659;28;20096;-78
2024/01/26 04:45:37;;;;;;;11.65;6.32;;;10.80;99.90;;;;;;4996817;28;20467;-78
2024/01/26 04:48:04;;;;;;;13.88;6.40;;;10.80;99.90;;;;;;4996382;28;20057;-78
2024/01/26 04:50:30;;;;;;;11.48;5.93;;;10.80;99.90;;;;;;4996932;28;20533;-78
2024/01/26 04:52:56;;;;;;;14.18;6.10;;;10.80;99.90;;;;;;4996567;28;20081;-78
2024/01/26 04:55:30;;;;;;;13.38;5.63;;;10.90;99.90;;;;;;4997630;28;20482;-79
2024/01/26 04:57:56;;;;;;;13.45;5.80;;;10.90;99.90;;;;;;4997447;28;20080;-78
2024/01/26 05:00:22;;;;;;;10.27;5.18;;;10.90;99.90;;;;;;4997312;28;20034;-78
2024/01/26 05:02:47;;;;;;;11.82;6.50;;;10.90;99.90;;;;;;4995859;28;20036;-78
2024/01/26 05:05:13;;;;;;;11.25;6.47;;;10.80;99.90;;;;;;4997438;28;20093;-78
2024/01/26 05:07:39;;;;;;;13.40;6.20;;;10.80;99.90;;;;;;4996581;28;20014;-78
2024/01/26 05:10:06;;;;;;;11.82;6.22;;;10.80;99.90;;;;;;4995984;28;20386;-77
2024/01/26 05:12:32;;;;;;;16.08;6.70;;;10.80;99.90;;;;;;4996390;28;20089;-78
2024/01/26 05:14:58;;;;;;;14.32;6.53;;;10.80;99.90;;;;;;4998130;28;20378;-78
2024/01/26 05:17:24;;;;;;;11.18;5.88;;;10.90;99.90;;;;;;4995655;28;20031;-78
2024/01/26 05:19:49;;;;;;;12.68;6.18;;;10.80;99.90;;;;;;4995865;28;20478;-78
2024/01/26 05:22:15;;;;;;;13.85;6.43;;;10.90;99.90;;;;;;4996538;28;20033;-78
2024/01/26 05:24:41;;;;;;;12.15;6.63;;;10.90;99.90;;;;;;4995564;28;20487;-78
2024/01/26 05:27:07;;;;;;;15.23;6.53;;;10.80;99.90;;;;;;4996944;28;20030;-78
2024/01/26 05:29:33;;;;;;;17.92;7.20;;;10.80;99.90;;;;;;4997223;28;20030;-78
2024/01/26 05:31:58;;;;;;;12.55;6.35;;;10.80;99.90;;;;;;4995755;28;20042;-78
2024/01/26 05:34:24;;;;;;;13.65;6.80;;;10.80;99.90;;;;;;4995701;28;20022;-78
2024/01/26 05:36:50;;;;;;;10.40;5.80;;;10.80;99.90;;;;;;4995342;28;20031;-78
2024/01/26 05:39:15;;;;;;;13.68;6.03;;;10.80;99.90;;;;;;4995277;28;20025;-78
2024/01/26 05:41:42;;;;;;;11.88;6.43;;;10.80;99.90;;;;;;4996480;28;20036;-78
2024/01/26 05:44:07;;;;;;;12.15;5.82;;;10.70;99.90;;;;;;4996361;28;20014;-78
2024/01/26 05:46:33;;;;;;;13.40;5.97;;;10.70;99.90;;;;;;4996759;28;20026;-78
2024/01/26 05:48:59;;;;;;;13.23;5.28;;;10.70;99.90;;;;;;4997268;28;20034;-78
2024/01/26 05:51:24;;;;;;;12.88;5.93;;;10.70;99.90;;;;;;4996071;28;20029;-77
2024/01/26 05:53:54;;;;;;;10.88;5.47;;;10.70;99.90;;;;;;4995918;28;20026;-77
2024/01/26 05:56:20;;;;;;;10.05;5.03;;;10.70;99.90;;;;;;4995456;28;20034;-78
2024/01/26 05:58:46;;;;;;;12.27;5.30;;;11.50;99.90;;;;;;4996760;28;20478;-76
2024/01/26 06:01:12;;;;;;;10.90;4.70;;;10.70;99.90;;;;;;4995034;28;20224;-78
2024/01/26 06:03:37;;;;;;;10.20;5.05;;;10.70;99.90;;;;;;4997492;28;20086;-78
2024/01/26 06:06:03;;;;;;;8.30;4.35;;;10.70;99.90;;;;;;4995912;28;20018;-78
2024/01/26 06:08:29;;;;;;;8.60;4.07;;;10.80;99.90;;;;;;4997788;28;20022;-78
2024/01/26 06:10:58;;;;;;;10.75;3.92;;;10.70;99.90;;;;;;4996197;28;20041;-78
2024/01/26 06:13:24;;;;;;;;;;;10.70;99.90;;;;;;4998163;28;20030;-78
2024/01/26 06:15:52;;;;;;;7.80;3.58;;;10.70;99.90;;;;;;4997450;28;19906;-77
2024/01/26 06:18:18;;;;;;;7.38;3.97;;;10.70;99.90;;;;;;4997353;28;20397;-78
2024/01/26 06:20:46;;;;;;;7.55;3.40;;;10.70;99.90;;;;;;4996557;28;20035;-78
2024/01/26 06:23:12;;;;;;;9.30;3.72;;;10.70;99.90;;;;;;4997173;28;20507;-78
2024/01/26 06:25:37;;;;;;;9.02;3.53;;;10.80;99.90;;;;;;4996752;28;20026;-77
2024/01/26 06:28:05;;;;;;;7.05;3.75;;;10.70;99.90;;;;;;4996833;28;20032;-77
2024/01/26 06:30:31;;;;;;;8.05;3.60;;;10.80;99.90;;;;;;4996997;28;20030;-77
2024/01/26 06:32:56;;;;;;;7.78;4.03;;;10.70;99.90;;;;;;4995698;28;20042;-78
2024/01/26 06:35:22;;;;;;;10.65;4.03;;;10.70;99.90;;;;;;4997053;28;20057;-78
2024/01/26 06:37:48;;;;;;;5.65;3.17;;;10.70;99.90;;;;;;4997114;28;20508;-78
2024/01/26 06:40:13;;;;;;;7.70;3.70;;;10.70;99.90;;;;;;4996989;28;20037;-78
2024/01/26 06:42:40;;;;;;;7.55;3.75;;;10.70;99.90;;;;;;4997023;28;20045;-78
2024/01/26 06:45:12;;;;;;;5.57;3.22;;;10.70;99.90;;;;;;4996141;28;20023;-78
2024/01/26 06:47:38;;;;;;;8.30;4.35;;;10.70;99.90;;;;;;4996431;28;20030;-78
2024/01/26 06:50:05;;;;;;;7.07;3.33;;;10.80;99.90;;;;;;4994836;28;20102;-78
2024/01/26 06:52:32;;;;;;;6.00;3.67;;;10.80;99.90;;;;;;4996393;28;20037;-77
2024/01/26 06:54:58;;;;;;;8.68;4.32;;;10.80;99.90;;;;;;4994528;28;20092;-78
2024/01/26 06:57:23;;;;;;;6.72;3.70;;;10.80;99.90;;;;;;4994848;28;20117;-78
2024/01/26 06:59:50;;;;;;;7.95;3.92;;;10.80;99.90;;;;;;4994566;28;20069;-77
2024/01/26 07:02:16;;;;;;;6.88;4.40;;;10.90;99.90;;;;;;4995260;28;20026;-77
2024/01/26 07:04:43;;;;;;;6.72;3.70;;;10.90;99.90;;;;;;4994643;28;20022;-77
2024/01/26 07:07:09;;;;;;;6.80;3.30;;;10.90;99.90;;;;;;4994805;28;20034;-79
2024/01/26 07:09:34;;;;;;;6.20;3.47;;;11.00;99.90;;;;;;4995852;28;20022;-78
2024/01/26 07:12:02;;;;;;;7.50;3.03;;;11.80;99.90;;;;;;4994097;28;20053;-78
2024/01/26 07:14:28;;;;;;;8.45;4.05;;;11.00;99.90;;;;;;4994157;28;20019;-78
2024/01/26 07:16:53;;;;;;;7.55;4.85;;;11.00;99.90;;;;;;4995684;28;20034;-77
2024/01/26 07:19:19;;;;;;;9.25;3.67;;;11.00;99.90;;;;;;4994468;28;20022;-78
2024/01/26 07:21:45;;;;;;;7.10;3.65;;;11.00;99.90;;;;;;4995272;28;20042;-78
2024/01/26 07:24:10;;;;;;;7.85;4.13;;;11.00;99.90;;;;;;4994068;28;20058;-78
2024/01/26 07:26:37;;;;;;;7.40;3.90;;;11.00;99.90;;;;;;4995163;28;20391;-78
2024/01/26 07:29:03;;;;;;;5.97;3.67;;;11.00;99.90;;;;;;4994165;28;20018;-78
2024/01/26 07:31:29;;;;;;;6.65;4.00;;;10.90;99.90;;;;;;4995140;28;20104;-78
2024/01/26 07:33:54;;;;;;;6.95;3.95;;;11.00;99.90;;;;;;4995801;28;20023;-78
2024/01/26 07:36:20;;;;;;;4.88;3.15;;;11.00;99.90;;;;;;4994757;28;20019;-77
2024/01/26 07:38:46;;;;;;;8.93;3.67;;;11.00;99.90;;;;;;4995004;28;20025;-78
2024/01/26 07:41:11;;;;;;;5.78;3.30;;;11.00;99.90;;;;;;4994793;28;20109;-78
2024/01/26 07:43:37;;;;;;;7.47;3.53;;;11.00;99.90;;;;;;4995013;28;20027;-78
2024/01/26 07:46:03;;;;;;;7.35;3.72;;;11.00;99.90;;;;;;4996746;28;20028;-78
2024/01/26 07:48:28;;;;;;;7.25;3.72;;;11.10;99.90;;;;;;4995648;28;20097;-77
2024/01/26 07:50:54;;;;;;;7.88;3.60;;;11.00;99.90;;;;;;4995625;28;20022;-78
2024/01/26 07:53:20;;;;;;;10.60;3.97;;;11.00;99.90;;;;;;4994419;28;20026;-77
2024/01/26 07:55:45;;;;;;;8.35;4.00;;;11.00;99.90;;;;;;4994737;28;20023;-77
2024/01/26 07:58:11;;;;;;;9.00;3.70;;;11.00;99.90;;;;;;4995003;28;20026;-78
2024/01/26 08:00:36;;;;;;;9.25;3.72;;;11.00;99.90;;;;;;4996831;28;20474;-78
2024/01/26 08:03:03;;;;;;;8.85;4.57;;;11.00;99.90;;;;;;4995724;28;20030;-78
2024/01/26 08:05:29;;;;;;;8.23;4.45;;;11.00;99.90;;;;;;4994656;28;20398;-78
2024/01/26 08:07:55;;;;;;;8.13;3.88;;;11.00;99.90;;;;;;4995893;28;20022;-80
2024/01/26 08:10:20;;;;;;;9.85;4.18;;;;;;;;;;4997473;28;20018;-79
2024/01/26 08:12:46;;;;;;;8.52;4.25;;;11.00;99.90;;;;;;5000924;28;20027;-82
2024/01/26 08:15:12;;;;;;;6.63;4.25;;;11.00;99.90;;;;;;5001344;28;20026;-85
2024/01/26 08:17:38;;;;;;;8.32;3.45;;;11.00;99.90;;;;;;5000944;28;20099;-82
2024/01/26 08:20:05;;;;;;;10.63;4.15;;;11.00;99.90;;;;;;5001828;28;20080;-81
2024/01/26 08:22:31;;;;;;;8.48;4.10;;;11.00;99.90;;;;;;5000626;28;20037;-83
2024/01/26 08:24:58;;;;;;;9.38;3.35;;;11.00;99.90;;;;;;5002347;28;20078;-82
2024/01/26 08:27:25;;;;;;;6.30;3.35;;;11.10;99.90;;;;;;5000935;28;20027;-82
2024/01/26 08:29:51;;;;;;;11.98;3.53;;;11.10;99.90;;;;;;5001360;28;20026;-85
2024/01/26 08:32:16;;;;;;;6.72;2.38;;;11.00;99.90;;;;;;5002543;28;20080;-85
2024/01/26 08:34:42;;;;;;;10.73;3.08;;;11.10;99.90;;;;;;5001232;28;20108;-82
2024/01/26 08:37:08;;;;;;;10.43;3.60;;;11.10;99.90;;;;;;5001482;28;20037;-83
2024/01/26 08:39:35;;;;;;;11.07;2.90;;;11.10;99.90;;;;;;5002063;28;20397;-80
2024/01/26 08:42:01;;;;;;;6.10;2.45;;;11.00;99.90;;;;;;4999680;28;20141;-79
2024/01/26 08:44:27;;;;;;;6.40;1.63;;;11.00;99.90;;;;;;4996381;28;20034;-79
2024/01/26 08:46:53;;;;;;;8.38;0.80;;;11.00;99.90;;;;;;4993273;28;20135;-79
2024/01/26 08:49:18;;;;;;;6.07;0.35;;;11.00;99.90;;;;;;4994980;28;20536;-79
2024/01/26 08:51:44;;;;;;;4.38;0.35;;;10.90;99.90;;;;;;4995449;28;20069;-79
2024/01/26 08:54:10;;;;;;;4.05;0.10;;;10.90;99.90;;;;;;4994875;28;20031;-78
2024/01/26 08:56:43;;;;;;;7.65;0.32;;;10.80;99.90;;;;;;4994371;28;20462;-79
2024/01/26 08:59:09;;;;;;;3.38;0.65;;;10.80;99.90;;;;;;4997752;28;20023;-79
2024/01/26 09:01:36;;;;;;;6.78;0.13;;;10.80;99.90;;;;;;4997621;28;20025;-78
2024/01/26 09:04:05;;;;;;;4.40;0.00;;;10.70;99.90;;;;;;5000129;28;20022;-79
2024/01/26 09:06:31;;;;;;;8.63;0.17;;;10.40;99.90;;;;;;5001200;28;20478;-79
2024/01/26 09:08:57;;;;;;;5.35;0.50;;;10.20;99.90;;;;;;5000190;28;20081;-79
2024/01/26 09:11:23;;;;;;;8.32;0.25;;;10.10;99.90;;;;;;4999524;28;20446;-79
2024/01/26 09:13:49;;;;;;;9.23;0.20;;;10.10;99.90;;;;;;5001346;28;20522;-80
2024/01/26 09:16:15;;;;;;;6.97;0.35;;;9.90;99.90;;;;;;5000923;28;20030;-81
2024/01/26 09:18:40;;;;;;;6.80;0.57;;;9.80;99.90;;;;;;5000337;28;20027;-79
2024/01/26 09:21:10;;;;;;;5.32;0.50;;;9.80;99.90;;;;;;5000395;28;20033;-79
2024/01/26 09:23:36;;;;;;;8.20;1.10;;;9.60;99.90;;;;;;4999267;28;20026;-79
2024/01/26 09:26:02;;;;;;;2.20;0.00;;;9.30;99.90;;;;;;5000035;28;20514;-79
2024/01/26 09:28:27;;;;;;;2.13;0.32;;;9.20;99.90;;;;;;5000149;28;20489;-78
2024/01/26 09:30:53;;;;;;;5.57;0.17;;;9.00;99.90;;;;;;5000636;28;20106;-80
2024/01/26 09:33:19;;;;;;;3.05;0.10;;;8.80;99.90;;;;;;5000946;28;20038;-79
2024/01/26 09:35:45;;;;;;;3.58;0.68;;;8.70;99.90;;;;;;4998184;28;20022;-78
2024/01/26 09:38:10;;;;;;;4.03;0.08;;;8.70;99.90;;;;;;4998307;28;20447;-78
2024/01/26 09:40:36;;;;;;;1.42;0.00;;;8.70;99.90;;;;;;4998666;28;20030;-78
2024/01/26 09:43:01;;;;;;;9.07;0.30;;;8.60;99.90;;;;;;4998355;28;20030;-79
2024/01/26 09:45:27;;;;;;;2.30;0.10;;;8.50;99.90;;;;;;4998894;28;20015;-79
2024/01/26 09:47:53;;;;;;;2.55;0.10;;;9.30;99.90;;;;;;4999525;28;20390;-80
2024/01/26 09:50:21;;;;;;;1.88;0.00;;;8.50;99.90;;;;;;5001103;28;20018;-80
2024/01/26 09:52:50;;;;;;;4.97;0.00;;;8.50;99.90;;;;;;5001806;28;20086;-79
2024/01/26 09:55:15;;;;;;;;;;;8.50;99.90;;;;;;5001428;28;20386;-79
2024/01/26 09:57:45;;;;;;;6.13;0.40;;;8.50;99.90;;;;;;4999357;28;19910;-80
2024/01/26 10:00:12;;;;;;;11.70;0.52;;;8.60;99.90;;;;;;4998953;28;20029;-80
2024/01/26 10:02:37;;;;;;;2.78;0.17;;;8.60;99.90;;;;;;5001245;28;20117;-79
2024/01/26 10:05:05;;;;;;;9.73;0.20;;;;;;;;;;5000698;28;20443;-80
2024/01/26 10:07:31;;;;;;;5.00;0.10;;;8.70;99.90;;;;;;5002824;28;20022;-79
2024/01/26 10:09:56;;;;;;;4.47;0.15;;;9.20;99.90;;;;;;4999581;28;20029;-78
2024/01/26 10:12:23;;;;;;;13.20;0.10;;;8.90;99.90;;;;;;5003150;28;20038;-79
2024/01/26 10:14:49;;;;;;;8.05;0.17;;;8.90;99.90;;;;;;4997914;28;20081;-79
2024/01/26 10:17:18;;;;;;;6.10;0.57;;;9.00;99.90;;;;;;5001215;28;20030;-79
2024/01/26 10:19:44;;;;;;;5.57;0.15;;;9.10;99.90;;;;;;4999672;28;20044;-79
2024/01/26 10:22:09;;;;;;;11.98;0.70;;;9.10;99.90;;;;;;4999259;28;20093;-79
2024/01/26 10:24:35;;;;;;;5.68;0.30;;;9.20;99.90;;;;;;4998544;28;20015;-79
2024/01/26 10:27:01;;;;;;;6.68;0.32;;;9.20;99.90;;;;;;4998588;28;20172;-79
2024/01/26 10:29:27;;;;;;;7.93;1.42;;;9.20;99.90;;;;;;5005775;28;20068;-79
2024/01/26 10:31:53;;;;;;;3.70;0.00;;;9.30;99.90;;;;;;4999451;28;20177;-79
2024/01/26 10:34:19;;;;;;;5.68;0.00;;;9.30;99.90;;;;;;4999718;28;20038;-79
2024/01/26 10:36:46;;;;;;;9.35;1.45;;;9.30;99.90;;;;;;4998552;28;20081;-79
2024/01/26 10:39:23;;;;;;;11.32;0.20;;;9.30;99.90;;;;;;4997070;28;20026;-79
2024/01/26 10:41:53;;;;;;;9.70;0.00;;;9.30;99.90;;;;;;4996979;28;20486;-79
2024/01/26 10:44:20;;;;;;;3.30;0.05;;;9.30;99.90;;;;;;4999323;28;20018;-79
2024/01/26 10:46:46;;;;;;;4.40;0.35;;;9.40;99.90;;;;;;5004716;28;20021;-79
2024/01/26 10:49:12;;;;;;;1.83;0.20;;;9.90;99.90;;;;;;5006578;28;20046;-79
2024/01/26 10:51:40;;;;;;;3.80;0.10;;;9.40;99.90;;;;;;4999965;28;20031;-79
2024/01/26 10:54:13;;;;;;;6.13;0.60;;;9.50;99.90;;;;;;4997902;28;20527;-79
2024/01/26 10:56:40;;;;;;;6.25;0.40;;;9.40;99.90;;;;;;4999728;28;20474;-79
2024/01/26 10:59:10;;;;;;;7.85;0.10;;;9.40;99.90;;;;;;4998646;28;20157;-79
2024/01/26 11:01:39;;;;;;;7.25;0.57;;;9.30;99.90;;;;;;4997778;28;20244;-77
2024/01/26 11:04:08;;;;;;;9.43;0.45;;;9.50;99.90;;;;;;4997914;28;20039;-78
2024/01/26 11:06:37;;;;;;;;;;;9.30;99.90;;;;;;4996836;28;20015;-78
2024/01/26 11:09:11;;;;;;;11.80;0.57;;;9.30;99.90;;;;;;4998887;28;19909;-80
2024/01/26 11:11:38;;;;;;;7.13;0.20;;;9.30;99.90;;;;;;4998279;28;20105;-79
2024/01/26 11:14:05;;;;;;;6.55;0.47;;;9.30;99.90;;;;;;4999352;28;20089;-79
2024/01/26 11:16:51;;;;;;;10.05;0.45;;;9.40;99.90;;;;;;5002265;28;20446;-79
2024/01/26 11:19:23;;;;;;;8.00;0.45;;;9.50;99.90;;;;;;5003026;28;20037;-79
2024/01/26 11:21:49;;;;;;;7.07;0.20;;;9.50;99.90;;;;;;5001268;28;20037;-78
2024/01/26 11:24:19;;;;;;;3.92;0.08;;;9.50;99.90;;;;;;4998221;28;20371;-79
2024/01/26 11:26:56;;;;;;;6.47;0.22;;;9.40;99.90;;;;;;4996273;28;20030;-78
2024/01/26 11:29:22;;;;;;;7.85;0.10;;;9.30;99.90;;;;;;4996095;28;20033;-78
2024/01/26 11:31:49;;;;;;;10.68;0.65;;;9.20;99.90;;;;;;4997307;28;20026;-78
2024/01/26 11:34:21;;;;;;;9.55;0.40;;;9.20;99.90;;;;;;4996580;28;20033;-78
2024/01/26 11:36:47;;;;;;;9.80;0.40;;;9.30;99.90;;;;;;4997047;28;20494;-80
2024/01/26 11:39:14;;;;;;;13.20;0.80;;;9.30;99.90;;;;;;4996190;28;20022;-79
2024/01/26 11:41:44;;;;;;;7.07;0.13;;;9.30;99.90;;;;;;4996897;28;20433;-79
2024/01/26 11:44:21;;;;;;;9.63;0.85;;;9.30;99.90;;;;;;4997203;28;20517;-79
2024/01/26 11:46:47;;;;;;;5.32;0.75;;;9.20;99.90;;;;;;4998114;28;20030;-78
2024/01/26 11:49:13;;;;;;;5.45;0.38;;;9.20;99.90;;;;;;4998524;28;20050;-79
2024/01/26 11:51:39;;;;;;;10.80;1.25;;;9.20;99.90;;;;;;5000819;28;20026;-79
2024/01/26 11:54:05;;;;;;;6.47;0.65;;;9.20;99.90;;;;;;4999312;28;20022;-79
2024/01/26 11:56:32;;;;;;;11.30;0.85;;;9.30;99.90;;;;;;4998336;28;20572;-79
2024/01/26 11:58:59;;;;;;;10.63;0.20;;;9.40;99.90;;;;;;4996389;28;20108;-79
2024/01/26 12:01:24;;;;;;;12.35;0.43;;;9.40;99.90;;;;;;4996511;28;20026;-79
2024/01/26 12:03:50;;;;;;;7.47;0.40;;;9.50;99.90;;;;;;4999475;28;20026;-79
2024/01/26 12:06:16;;;;;;;6.72;0.85;;;9.60;99.90;;;;;;4999937;28;20031;-80
2024/01/26 12:08:42;;;;;;;15.20;1.23;;;9.70;99.90;;;;;;5003896;28;20026;-79
2024/01/26 12:11:10;;;;;;;7.05;0.20;;;9.70;99.90;;;;;;5005027;28;20018;-79
2024/01/26 12:13:36;;;;;;;9.77;1.40;;;9.70;99.90;;;;;;4999428;28;20029;-79
2024/01/26 12:16:03;;;;;;;10.27;0.60;;;9.60;99.90;;;;;;4999740;28;20043;-79
2024/01/26 12:18:29;;;;;;;9.80;0.40;;;9.50;99.90;;;;;;4999331;28;20022;-79
2024/01/26 12:20:57;;;;;;;17.95;0.35;;;9.50;99.90;;;;;;4998075;28;20089;-78
2024/01/26 12:23:23;;;;;;;4.37;0.20;;;9.00;99.90;;;;;;4998189;28;20030;-78
2024/01/26 12:25:52;;;;;;;9.13;0.88;;;9.40;99.90;;;;;;4998150;28;20344;-78
2024/01/26 12:28:19;;;;;;;9.05;0.20;;;9.30;99.90;;;;;;4997470;28;20026;-79
2024/01/26 12:30:46;;;;;;;7.63;0.40;;;9.20;99.90;;;;;;5002403;28;20038;-80
2024/01/26 12:33:12;;;;;;;7.60;0.75;;;9.20;99.90;;;;;;5002924;28;20375;-78
2024/01/26 12:35:40;;;;;;;7.78;0.28;;;9.20;99.90;;;;;;5005599;28;20576;-79
2024/01/26 12:38:11;;;;;;;8.50;2.08;;;9.20;99.90;;;;;;5001915;28;20034;-79
2024/01/26 12:40:36;;;;;;;5.72;0.20;;;9.20;99.90;;;;;;5003113;28;20105;-79
2024/01/26 12:43:03;;;;;;;9.73;0.90;;;9.20;99.90;;;;;;5002922;28;20094;-78
2024/01/26 12:45:29;;;;;;;5.65;0.10;;;9.10;99.90;;;;;;5000842;28;20441;-78
2024/01/26 12:47:55;;;;;;;8.70;0.45;;;9.10;99.90;;;;;;5000342;28;20026;-78